aviador You're here:

LZKZ Decoded Metar

KOSICE in SLOVAKIA
Report Time2018-07-20 20:00:00
UTC Time2018-07-20 20:07:56
Flight Rules vfr VFR
Wind340° at 05 kt
W.Decomp.*RWY 01: 4.1 kt HW 2.9 kt LCW
W.Rank340° ranks 15
Current wind is above 340° avg. (4.8)
Visibility9999 m
Phenomena:N/A
Clouds:N/A
Expected CloudBase > 1,200 ft AGL from Temp-Dew spread
CeilingNone
Temp20°C (ISA +7)
Dew Point17°C (83% RH)
QNH1012 hPa
Density Alt1,818 ft
Elevation761 ft
Report Wrong Elevation
Raw Report
METAR LZKZ 202000Z 34005KT CAVOK 20/17 Q1012=

Extra information for LZKZ:More info

Metar Taf Metar & Taf Last 4 Metars F.Rules Stats Wind Profile Meteogram Temp Stats Airport Information Weather charts Add Link Nearby VenuesMetar ALERT Operation Metar Decoded Social comments